Time;durP1;ratioP1;P1;durP2;ratioP2;P2;SDS_P1;SDS_P2;PMS_P1;PMS_P2;Temp;Humidity;BMP_temperature;BMP_pressure;BME280_temperature;BME280_humidity;BME280_pressure;Samples;Min_cycle;Max_cycle;Signal;HPM_P1;HPM_P2
2023/01/28 00:02:07;;;;;;;17.80;9.77;;;;;;;;;;5020653;28;20030;-66
2023/01/28 00:04:33;;;;;;;17.05;10.27;;;;;;;;;;5011609;28;20109;-63
2023/01/28 00:06:59;;;;;;;19.25;10.50;;;;;;;;;;5026796;28;20117;-65
2023/01/28 00:09:25;;;;;;;16.63;10.00;;;;;;;;;;5011633;28;20072;-62
2023/01/28 00:11:51;;;;;;;17.30;10.23;;;;;;;;;;5011459;28;20507;-63
2023/01/28 00:14:17;;;;;;;17.35;10.07;;;;;;;;;;5011466;28;20092;-64
2023/01/28 00:16:43;;;;;;;18.55;10.95;;;;;;;;;;5011485;28;20478;-64
2023/01/28 00:19:09;;;;;;;18.17;10.23;;;;;;;;;;5011346;28;20029;-64
2023/01/28 00:21:35;;;;;;;17.52;10.88;;;;;;;;;;5011212;28;20030;-64
2023/01/28 00:24:01;;;;;;;17.25;10.50;;;;;;;;;;5020696;28;20436;-64
2023/01/28 00:26:27;;;;;;;17.55;11.05;;;;;;;;;;5031128;28;20078;-64
2023/01/28 00:28:53;;;;;;;17.27;9.98;;;;;;;;;;5046235;28;20405;-64
2023/01/28 00:31:21;;;;;;;19.45;10.55;;;;;;;;;;4328254;28;10000712;-63
2023/01/28 00:33:48;;;;;;;16.95;10.35;;;;;;;;;;5027793;28;20486;-64
2023/01/28 00:36:15;;;;;;;17.70;10.10;;;;;;;;;;5027898;28;20027;-63
2023/01/28 00:38:41;;;;;;;16.33;10.35;;;;;;;;;;5029403;28;20342;-61
2023/01/28 00:41:15;;;;;;;21.23;11.45;;;;;;;;;;5047481;28;20516;-63
2023/01/28 00:43:43;;;;;;;18.08;10.23;;;;;;;;;;5076488;22;20480;-60
2023/01/28 00:46:09;;;;;;;17.00;9.93;;;;;;;;;;5054627;28;20106;-58
2023/01/28 00:48:36;;;;;;;17.08;9.95;;;;;;;;;;5054216;28;20040;-60
2023/01/28 00:51:03;;;;;;;17.20;10.45;;;;;;;;;;5053136;28;20075;-60
2023/01/28 00:53:29;;;;;;;18.30;10.90;;;;;;;;;;5049090;28;20021;-59
2023/01/28 00:55:55;;;;;;;16.90;10.07;;;;;;;;;;5034507;28;20020;-59
2023/01/28 00:58:23;;;;;;;20.95;10.60;;;;;;;;;;5032859;28;20087;-57
2023/01/28 01:00:49;;;;;;;17.45;10.70;;;;;;;;;;5034761;28;20027;-58
2023/01/28 01:03:15;;;;;;;18.50;10.88;;;;;;;;;;5034738;28;20171;-57
2023/01/28 01:05:41;;;;;;;19.65;11.65;;;;;;;;;;5035861;28;20028;-60
2023/01/28 01:08:07;;;;;;;17.75;11.18;;;;;;;;;;5035629;28;20041;-57
2023/01/28 01:10:33;;;;;;;20.52;11.40;;;;;;;;;;5035809;28;20047;-56
2023/01/28 01:12:59;;;;;;;18.17;10.13;;;;;;;;;;5035707;28;20032;-60
2023/01/28 01:15:25;;;;;;;17.35;10.20;;;;;;;;;;5036727;28;20025;-58
2023/01/28 01:17:52;;;;;;;17.40;10.48;;;;;;;;;;5035776;28;20025;-60
2023/01/28 01:20:22;;;;;;;16.15;9.48;;;;;;;;;;5035604;28;20029;-60
2023/01/28 01:22:48;;;;;;;18.08;10.32;;;;;;;;;;5035201;28;20456;-54
2023/01/28 01:25:15;;;;;;;17.17;10.18;;;;;;;;;;5034720;28;20152;-57
2023/01/28 01:27:41;;;;;;;17.88;10.55;;;;;;;;;;5036317;28;20057;-60
2023/01/28 01:30:08;;;;;;;16.25;9.45;;;;;;;;;;5036290;28;20021;-57
2023/01/28 01:32:34;;;;;;;17.10;9.95;;;;;;;;;;5036693;28;20501;-61
2023/01/28 01:35:00;;;;;;;16.60;9.35;;;;;;;;;;5035834;28;20104;-59
2023/01/28 01:37:27;;;;;;;18.35;10.38;;;;;;;;;;5035880;28;20108;-62
2023/01/28 01:39:53;;;;;;;17.50;10.15;;;;;;;;;;5036077;28;20036;-68
2023/01/28 01:42:19;;;;;;;16.40;9.23;;;;;;;;;;5035765;28;20022;-58
2023/01/28 01:44:59;;;;;;;17.48;9.70;;;;;;;;;;5034536;28;20045;-62
2023/01/28 01:47:45;;;;;;;18.38;9.90;;;;;;;;;;5035711;28;20359;-59
2023/01/28 01:50:21;;;;;;;16.63;9.43;;;;;;;;;;5033188;28;20444;-61
2023/01/28 01:52:49;;;;;;;18.80;10.07;;;;;;;;;;5035890;28;20104;-58
2023/01/28 01:55:17;;;;;;;16.85;9.32;;;;;;;;;;5034130;28;20386;-56
2023/01/28 01:57:43;;;;;;;16.75;9.25;;;;;;;;;;5033085;28;20030;-58
2023/01/28 02:00:10;;;;;;;16.80;9.35;;;;;;;;;;5032836;28;20025;-58
2023/01/28 02:02:41;;;;;;;16.58;9.48;;;;;;;;;;5034099;28;20079;-60
2023/01/28 02:05:08;;;;;;;17.30;9.40;;;;;;;;;;5033670;28;20481;-58
2023/01/28 02:07:34;;;;;;;19.60;10.15;;;;;;;;;;5032491;28;20029;-56
2023/01/28 02:10:00;;;;;;;17.63;9.98;;;;;;;;;;5034041;28;20028;-58
2023/01/28 02:12:31;;;;;;;15.93;9.43;;;;;;;;;;5033923;28;20048;-58
2023/01/28 02:15:00;;;;;;;15.68;9.48;;;;;;;;;;5033599;28;20030;-59
2023/01/28 02:17:26;;;;;;;16.23;9.18;;;;;;;;;;5034096;28;20030;-59
2023/01/28 02:20:12;;;;;;;17.95;9.48;;;;;;;;;;5034177;28;20398;-59
2023/01/28 02:22:47;;;;;;;19.10;9.30;;;;;;;;;;5032594;28;20451;-59
2023/01/28 02:25:22;;;;;;;16.67;9.07;;;;;;;;;;5027022;28;20448;-59
2023/01/28 02:28:07;;;;;;;18.50;10.25;;;;;;;;;;5033732;28;20061;-58
2023/01/28 02:30:35;;;;;;;15.57;8.90;;;;;;;;;;5013641;28;20026;-58
2023/01/28 02:33:19;;;;;;;17.05;9.55;;;;;;;;;;5013673;28;20029;-58
2023/01/28 02:35:51;;;;;;;16.50;9.63;;;;;;;;;;5013694;28;20053;-58
2023/01/28 02:38:25;;;;;;;16.17;9.10;;;;;;;;;;5012368;28;20042;-57
2023/01/28 02:41:08;;;;;;;17.58;10.60;;;;;;;;;;5013521;28;20571;-58
2023/01/28 02:43:34;;;;;;;17.95;9.20;;;;;;;;;;5013194;28;20033;-58
2023/01/28 02:48:51;;;;;;;17.08;9.10;;;;;;;;;;5013835;28;20037;-58
2023/01/28 02:51:30;;;;;;;16.40;9.15;;;;;;;;;;5013241;28;20034;-58
2023/01/28 02:54:22;;;;;;;17.52;8.88;;;;;;;;;;5013040;28;20390;-59
2023/01/28 02:56:56;;;;;;;16.60;9.38;;;;;;;;;;4997669;28;20474;-55
2023/01/28 02:59:32;;;;;;;16.73;9.18;;;;;;;;;;5013212;28;20022;-59
2023/01/28 03:02:08;;;;;;;16.08;8.95;;;;;;;;;;5012351;28;20093;-59
2023/01/28 03:04:40;;;;;;;18.27;9.00;;;;;;;;;;5012849;28;20515;-58
2023/01/28 03:07:07;;;;;;;17.27;9.75;;;;;;;;;;5012912;28;20512;-59
2023/01/28 03:09:34;;;;;;;17.38;9.25;;;;;;;;;;5013208;28;20432;-60
2023/01/28 03:37:03;;;;;;;18.70;10.07;;;;;;;;;;5032589;28;20402;-60
2023/01/28 03:39:30;;;;;;;18.48;10.35;;;;;;;;;;5032635;28;20028;-60
2023/01/28 03:42:01;;;;;;;15.35;9.15;;;;;;;;;;5032464;28;20528;-60
2023/01/28 03:47:12;;;;;;;16.10;9.75;;;;;;;;;;5032421;28;20086;-59
2023/01/28 03:49:44;;;;;;;18.42;9.35;;;;;;;;;;5030844;28;20026;-58
2023/01/28 03:52:12;;;;;;;16.67;10.35;;;;;;;;;;5032126;28;20069;-60
2023/01/28 03:54:38;;;;;;;16.77;9.38;;;;;;;;;;5030352;28;20022;-56
2023/01/28 03:57:07;;;;;;;16.83;9.48;;;;;;;;;;5032015;28;20112;-58
2023/01/28 03:59:33;;;;;;;17.63;9.50;;;;;;;;;;5031775;28;20027;-57
2023/01/28 04:02:02;;;;;;;16.88;9.88;;;;;;;;;;5031862;28;20492;-59
2023/01/28 04:04:28;;;;;;;15.77;9.25;;;;;;;;;;5031425;28;20033;-56
2023/01/28 04:06:54;;;;;;;18.38;9.80;;;;;;;;;;5031906;28;20029;-60
2023/01/28 04:09:21;;;;;;;16.33;10.05;;;;;;;;;;5032016;28;20025;-58
2023/01/28 04:11:47;;;;;;;17.45;9.95;;;;;;;;;;5030691;28;20117;-57
2023/01/28 04:14:14;;;;;;;16.50;9.75;;;;;;;;;;5031305;28;20033;-60
2023/01/28 04:16:40;;;;;;;15.80;9.40;;;;;;;;;;5031748;28;20033;-58
2023/01/28 04:19:07;;;;;;;17.00;9.43;;;;;;;;;;5031458;28;20038;-58
2023/01/28 04:21:33;;;;;;;16.25;9.73;;;;;;;;;;5031686;28;20033;-59
2023/01/28 04:23:59;;;;;;;17.23;9.77;;;;;;;;;;5031418;28;20037;-58
2023/01/28 04:26:25;;;;;;;16.88;9.80;;;;;;;;;;5030558;28;20021;-58
2023/01/28 04:28:51;;;;;;;17.27;9.90;;;;;;;;;;5031965;28;20036;-60
2023/01/28 04:31:17;;;;;;;18.35;10.00;;;;;;;;;;5031669;28;20029;-60
2023/01/28 04:33:43;;;;;;;16.00;9.45;;;;;;;;;;5031100;28;20103;-59
2023/01/28 04:36:09;;;;;;;18.98;9.90;;;;;;;;;;5031341;28;20470;-58
2023/01/28 04:38:35;;;;;;;16.30;9.63;;;;;;;;;;5031167;28;20108;-59
2023/01/28 04:41:01;;;;;;;16.88;9.65;;;;;;;;;;5031388;28;20450;-59
2023/01/28 04:43:27;;;;;;;16.65;9.82;;;;;;;;;;5030746;28;20060;-60
2023/01/28 04:45:53;;;;;;;16.30;9.55;;;;;;;;;;5031634;28;20441;-60
2023/01/28 04:48:19;;;;;;;16.20;9.18;;;;;;;;;;5031211;28;20025;-59
2023/01/28 04:50:45;;;;;;;17.08;9.95;;;;;;;;;;5031886;28;20803;-60
2023/01/28 04:53:11;;;;;;;20.35;9.70;;;;;;;;;;5031293;28;20045;-60
2023/01/28 04:55:37;;;;;;;18.25;10.50;;;;;;;;;;5031532;28;20033;-58
2023/01/28 04:58:03;;;;;;;15.68;9.20;;;;;;;;;;5031437;28;20397;-59
2023/01/28 05:00:29;;;;;;;16.98;9.40;;;;;;;;;;5031656;28;20470;-60
2023/01/28 05:02:55;;;;;;;17.67;9.27;;;;;;;;;;5031824;28;20426;-56
2023/01/28 05:05:21;;;;;;;16.70;9.48;;;;;;;;;;5031719;28;20119;-61
2023/01/28 05:07:51;;;;;;;15.93;9.63;;;;;;;;;;5031965;28;20160;-60
2023/01/28 05:10:18;;;;;;;15.60;9.32;;;;;;;;;;5030347;28;21061;-57
2023/01/28 05:12:45;;;;;;;17.42;10.15;;;;;;;;;;5028634;28;20119;-56
2023/01/28 05:15:11;;;;;;;19.17;10.60;;;;;;;;;;5012418;28;20665;-61
2023/01/28 05:17:36;;;;;;;18.75;10.32;;;;;;;;;;5027832;28;20072;-55
2023/01/28 05:20:03;;;;;;;17.92;10.40;;;;;;;;;;5017840;28;20021;-59
2023/01/28 05:22:29;;;;;;;16.67;10.55;;;;;;;;;;5022099;28;20021;-59
2023/01/28 05:24:55;;;;;;;19.67;10.32;;;;;;;;;;5032513;28;20492;-58
2023/01/28 05:27:21;;;;;;;16.98;10.57;;;;;;;;;;5033957;28;20030;-61
2023/01/28 05:29:47;;;;;;;18.85;10.63;;;;;;;;;;5035338;28;20030;-59
2023/01/28 05:32:13;;;;;;;17.75;10.60;;;;;;;;;;5034972;28;20367;-61
2023/01/28 05:34:39;;;;;;;19.98;10.27;;;;;;;;;;5034392;28;20025;-59
2023/01/28 05:37:05;;;;;;;16.40;10.38;;;;;;;;;;5034648;28;20056;-60
2023/01/28 05:39:31;;;;;;;21.08;11.60;;;;;;;;;;5033314;28;20022;-59
2023/01/28 05:41:57;;;;;;;18.90;10.05;;;;;;;;;;5034647;28;20025;-59
2023/01/28 05:44:23;;;;;;;19.98;10.32;;;;;;;;;;5034395;28;20034;-56
2023/01/28 05:46:49;;;;;;;17.00;9.68;;;;;;;;;;5034507;28;20108;-65
2023/01/28 05:49:15;;;;;;;17.60;10.05;;;;;;;;;;5034560;28;20037;-59
2023/01/28 05:51:41;;;;;;;17.63;10.50;;;;;;;;;;5034550;28;20071;-61
2023/01/28 05:54:08;;;;;;;16.77;9.60;;;;;;;;;;5032787;28;20075;-59
2023/01/28 05:56:35;;;;;;;18.60;9.75;;;;;;;;;;5034421;28;20021;-61
2023/01/28 05:59:01;;;;;;;18.02;10.45;;;;;;;;;;5032973;28;20493;-60
2023/01/28 06:01:27;;;;;;;16.58;9.77;;;;;;;;;;5034203;28;20029;-59
2023/01/28 06:03:53;;;;;;;21.30;11.10;;;;;;;;;;5033953;28;20026;-60
2023/01/28 06:06:19;;;;;;;16.88;9.77;;;;;;;;;;5034035;28;20025;-60
2023/01/28 06:08:45;;;;;;;17.40;10.23;;;;;;;;;;5033967;28;20033;-60
2023/01/28 06:11:11;;;;;;;18.80;11.13;;;;;;;;;;5034046;28;20101;-61
2023/01/28 06:13:40;;;;;;;18.65;10.90;;;;;;;;;;5032254;28;20540;-61
2023/01/28 06:16:06;;;;;;;16.88;10.48;;;;;;;;;;5033519;28;20025;-61
2023/01/28 06:18:32;;;;;;;17.67;10.57;;;;;;;;;;5033798;28;20030;-59
2023/01/28 06:20:58;;;;;;;17.52;9.90;;;;;;;;;;5033823;28;20030;-59
2023/01/28 06:23:24;;;;;;;17.92;10.63;;;;;;;;;;5033567;28;20118;-59
2023/01/28 06:25:57;;;;;;;17.23;10.10;;;;;;;;;;5033656;28;20029;-59
2023/01/28 06:28:23;;;;;;;20.48;11.45;;;;;;;;;;5033480;28;20122;-60
2023/01/28 06:30:50;;;;;;;19.27;10.93;;;;;;;;;;5032191;28;20044;-61
2023/01/28 06:33:16;;;;;;;18.13;10.68;;;;;;;;;;5032059;28;20732;-60
2023/01/28 06:35:42;;;;;;;16.77;10.50;;;;;;;;;;5032706;28;20033;-60
2023/01/28 06:38:09;;;;;;;18.83;10.18;;;;;;;;;;5033137;28;20025;-61
2023/01/28 06:40:35;;;;;;;16.98;10.30;;;;;;;;;;5033278;28;20057;-59
2023/01/28 06:43:00;;;;;;;16.85;10.65;;;;;;;;;;5032937;28;20024;-61
2023/01/28 06:45:26;;;;;;;18.10;11.38;;;;;;;;;;5037363;23;20050;-64
2023/01/28 06:47:52;;;;;;;19.40;10.85;;;;;;;;;;5020382;28;20129;-64
2023/01/28 06:50:18;;;;;;;18.48;10.93;;;;;;;;;;5025712;28;20397;-61
2023/01/28 06:52:45;;;;;;;17.45;10.32;;;;;;;;;;5015060;28;20058;-64
2023/01/28 06:55:11;;;;;;;19.15;10.68;;;;;;;;;;5008717;28;20403;-63
2023/01/28 06:57:38;;;;;;;19.98;10.75;;;;;;;;;;4993972;28;20026;-63
2023/01/28 07:00:05;;;;;;;17.40;10.55;;;;;;;;;;5000571;28;20478;-62
2023/01/28 07:02:31;;;;;;;21.05;10.50;;;;;;;;;;5011796;28;20034;-63
2023/01/28 07:04:57;;;;;;;18.27;11.15;;;;;;;;;;5011550;28;20505;-63
2023/01/28 07:07:23;;;;;;;21.13;10.88;;;;;;;;;;5012971;28;20036;-63
2023/01/28 07:09:49;;;;;;;18.85;11.07;;;;;;;;;;5011844;28;20022;-64
2023/01/28 07:12:15;;;;;;;19.15;11.57;;;;;;;;;;5008782;28;20044;-61
2023/01/28 07:14:41;;;;;;;16.45;10.70;;;;;;;;;;5011272;28;20474;-63
2023/01/28 07:17:07;;;;;;;17.65;11.35;;;;;;;;;;5011842;28;20037;-65
2023/01/28 07:19:33;;;;;;;17.73;11.18;;;;;;;;;;5012868;28;20022;-63
2023/01/28 07:22:01;;;;;;;21.05;11.55;;;;;;;;;;5011456;28;20014;-64
2023/01/28 07:24:27;;;;;;;16.85;11.02;;;;;;;;;;5012718;28;20018;-64
2023/01/28 07:26:53;;;;;;;17.90;10.68;;;;;;;;;;5012896;28;20034;-64
2023/01/28 07:29:20;;;;;;;16.80;10.25;;;;;;;;;;5012660;28;20030;-64
2023/01/28 07:31:46;;;;;;;17.73;10.93;;;;;;;;;;5012756;28;20068;-63
2023/01/28 07:34:12;;;;;;;19.25;10.93;;;;;;;;;;5011420;28;20022;-63
2023/01/28 07:36:38;;;;;;;17.55;10.88;;;;;;;;;;5011248;28;20084;-64
2023/01/28 07:39:04;;;;;;;18.80;11.45;;;;;;;;;;5011439;28;20060;-64
2023/01/28 07:41:30;;;;;;;19.38;11.32;;;;;;;;;;5011266;28;20033;-63
2023/01/28 07:43:56;;;;;;;17.60;10.30;;;;;;;;;;5010747;28;20056;-64
2023/01/28 07:46:22;;;;;;;19.33;11.43;;;;;;;;;;5011278;28;20398;-64
2023/01/28 07:48:48;;;;;;;18.88;10.50;;;;;;;;;;5027081;28;20025;-64
2023/01/28 07:51:14;;;;;;;18.15;10.88;;;;;;;;;;5012359;28;20026;-64
2023/01/28 07:53:40;;;;;;;24.25;11.13;;;;;;;;;;5027104;28;20025;-66
2023/01/28 07:56:06;;;;;;;17.92;10.93;;;;;;;;;;5012142;28;20105;-65
2023/01/28 07:58:33;;;;;;;18.13;10.45;;;;;;;;;;5027301;28;20056;-61
2023/01/28 08:00:59;;;;;;;18.55;11.13;;;;;;;;;;5012087;28;20061;-63
2023/01/28 08:03:26;;;;;;;18.77;11.95;;;;;;;;;;5011660;28;20036;-60
2023/01/28 08:05:53;;;;;;;18.55;10.85;;;;;;;;;;5011773;28;20474;-61
2023/01/28 08:08:19;;;;;;;16.00;10.50;;;;;;;;;;5027132;28;20034;-63
2023/01/28 08:10:45;;;;;;;17.50;10.73;;;;;;;;;;5027307;28;20041;-65
2023/01/28 08:13:12;;;;;;;17.75;10.25;;;;;;;;;;5041449;28;20024;-64
2023/01/28 08:15:39;;;;;;;17.67;10.40;;;;;;;;;;5031658;28;20022;-64
2023/01/28 08:18:06;;;;;;;16.73;10.10;;;;;;;;;;5031903;28;20049;-65
2023/01/28 08:20:32;;;;;;;17.60;10.48;;;;;;;;;;5031794;28;20026;-64
2023/01/28 08:23:25;;;;;;;18.25;10.93;;;;;;;;;;5031725;28;20025;-65
2023/01/28 08:25:52;;;;;;;22.67;10.75;;;;;;;;;;5044697;28;20560;-64
2023/01/28 08:28:18;;;;;;;17.13;10.10;;;;;;;;;;5046720;28;20029;-64
2023/01/28 08:30:45;;;;;;;18.77;10.43;;;;;;;;;;5046417;28;20140;-65
2023/01/28 08:33:11;;;;;;;17.65;10.35;;;;;;;;;;5046573;28;20116;-64
2023/01/28 08:35:39;;;;;;;19.02;10.45;;;;;;;;;;5046796;28;20100;-65
2023/01/28 08:38:05;;;;;;;17.58;10.98;;;;;;;;;;5031340;28;20036;-64
2023/01/28 08:40:32;;;;;;;19.08;10.75;;;;;;;;;;5046369;28;20543;-65
2023/01/28 08:42:58;;;;;;;17.30;10.23;;;;;;;;;;5046604;28;20481;-64
2023/01/28 08:45:25;;;;;;;16.98;10.32;;;;;;;;;;5018634;28;20026;-64
2023/01/28 08:47:52;;;;;;;18.77;10.63;;;;;;;;;;5011046;28;20026;-64
2023/01/28 08:50:19;;;;;;;19.30;10.82;;;;;;;;;;5010452;28;20026;-65
2023/01/28 08:52:46;;;;;;;17.75;10.98;;;;;;;;;;5011797;28;20030;-63
2023/01/28 08:55:12;;;;;;;18.73;10.65;;;;;;;;;;5010801;28;20022;-64
2023/01/28 08:57:38;;;;;;;20.00;10.52;;;;;;;;;;5010917;28;20030;-64
2023/01/28 09:00:05;;;;;;;19.30;12.15;;;;;;;;;;5010366;28;20112;-64
2023/01/28 09:02:31;;;;;;;19.30;10.68;;;;;;;;;;5015637;28;20030;-64
2023/01/28 09:04:57;;;;;;;21.92;11.18;;;;;;;;;;5015308;28;20567;-65
2023/01/28 09:07:23;;;;;;;20.15;12.35;;;;;;;;;;5015473;28;20418;-64
2023/01/28 09:09:49;;;;;;;18.95;11.18;;;;;;;;;;5013850;28;20041;-64
2023/01/28 09:12:16;;;;;;;21.15;12.40;;;;;;;;;;5014987;28;20528;-64
2023/01/28 09:14:42;;;;;;;21.55;12.13;;;;;;;;;;5014669;28;20394;-65
2023/01/28 09:17:08;;;;;;;22.95;12.77;;;;;;;;;;5015176;28;20022;-64
2023/01/28 09:19:34;;;;;;;22.65;12.88;;;;;;;;;;5030490;28;20022;-64
2023/01/28 09:22:02;;;;;;;24.30;12.88;;;;;;;;;;5030282;28;20472;-63
2023/01/28 09:24:28;;;;;;;20.02;12.95;;;;;;;;;;5014926;28;20490;-64
2023/01/28 09:26:54;;;;;;;20.55;12.95;;;;;;;;;;5015010;28;20026;-63
2023/01/28 09:29:20;;;;;;;20.55;12.40;;;;;;;;;;5014809;28;20034;-61
2023/01/28 09:31:46;;;;;;;22.08;13.45;;;;;;;;;;5014703;28;20030;-64
2023/01/28 09:34:12;;;;;;;22.52;13.90;;;;;;;;;;5014587;28;20388;-64
2023/01/28 09:36:39;;;;;;;22.48;13.65;;;;;;;;;;5029909;28;20033;-65
2023/01/28 09:39:05;;;;;;;22.05;13.73;;;;;;;;;;5029707;28;20492;-64
2023/01/28 09:41:57;;;;;;;23.67;14.18;;;;;;;;;;5022156;28;20105;-60
2023/01/28 09:44:35;;;;;;;25.85;14.20;;;;;;;;;;5001246;28;20049;-63
2023/01/28 09:47:09;;;;;;;23.10;13.80;;;;;;;;;;5018287;28;20057;-61
2023/01/28 09:49:38;;;;;;;24.98;14.48;;;;;;;;;;5029705;28;20021;-66
2023/01/28 09:52:04;;;;;;;24.13;14.23;;;;;;;;;;5029760;28;20530;-63
2023/01/28 09:54:42;;;;;;;24.05;14.23;;;;;;;;;;5014321;28;20429;-64
2023/01/28 09:57:14;;;;;;;23.15;13.82;;;;;;;;;;5029539;28;20125;-63
2023/01/28 09:59:40;;;;;;;25.77;15.02;;;;;;;;;;5014422;28;20116;-64
2023/01/28 10:02:18;;;;;;;23.77;14.88;;;;;;;;;;5014359;28;20096;-64
2023/01/28 10:04:55;;;;;;;26.83;15.50;;;;;;;;;;5014012;28;20390;-63
2023/01/28 10:07:27;;;;;;;23.20;13.43;;;;;;;;;;5029377;28;20390;-64
2023/01/28 10:10:02;;;;;;;25.67;14.98;;;;;;;;;;5014150;28;20020;-63
2023/01/28 10:12:35;;;;;;;24.85;15.63;;;;;;;;;;5013756;28;20034;-63
2023/01/28 10:15:16;;;;;;;24.90;14.75;;;;;;;;;;5013786;28;20048;-63
2023/01/28 10:17:47;;;;;;;26.55;15.80;;;;;;;;;;5014045;28;20025;-64
2023/01/28 10:20:19;;;;;;;29.55;17.95;;;;;;;;;;5029504;28;20308;-63
2023/01/28 10:22:48;;;;;;;29.58;16.00;;;;;;;;;;5013961;28;20056;-68
2023/01/28 10:25:18;;;;;;;27.30;16.48;;;;;;;;;;5013665;28;20026;-64
2023/01/28 10:27:46;;;;;;;24.77;15.20;;;;;;;;;;5013484;28;20084;-63
2023/01/28 10:30:24;;;;;;;31.87;19.53;;;;;;;;;;5013759;28;20733;-63
2023/01/28 10:32:56;;;;;;;25.08;15.20;;;;;;;;;;5013773;28;20375;-64
2023/01/28 10:35:23;;;;;;;25.38;15.52;;;;;;;;;;5028661;28;20451;-62
2023/01/28 10:37:49;;;;;;;25.75;15.65;;;;;;;;;;5028540;28;20029;-63
2023/01/28 10:40:16;;;;;;;24.88;15.52;;;;;;;;;;5013429;28;20122;-64
2023/01/28 10:42:43;;;;;;;25.08;15.05;;;;;;;;;;5028716;28;20040;-64
2023/01/28 10:45:22;;;;;;;24.15;14.50;;;;;;;;;;5013177;28;20033;-64
2023/01/28 10:47:48;;;;;;;26.23;16.55;;;;;;;;;;5028322;28;20104;-65
2023/01/28 10:50:17;;;;;;;26.38;15.68;;;;;;;;;;5013270;28;20487;-64
2023/01/28 10:52:59;;;;;;;25.92;14.60;;;;;;;;;;5013528;28;20390;-63
2023/01/28 10:55:26;;;;;;;24.83;15.25;;;;;;;;;;5012869;28;20494;-64
2023/01/28 10:57:53;;;;;;;26.63;15.65;;;;;;;;;;5028392;28;20030;-64
2023/01/28 11:00:19;;;;;;;29.23;15.32;;;;;;;;;;5013171;28;20484;-65
2023/01/28 11:02:47;;;;;;;27.10;16.35;;;;;;;;;;5010790;28;20033;-64
2023/01/28 11:05:19;;;;;;;27.93;17.40;;;;;;;;;;5011637;28;20030;-65
2023/01/28 11:07:47;;;;;;;29.90;15.88;;;;;;;;;;5012612;28;20288;-64
2023/01/28 11:10:36;;;;;;;26.00;16.52;;;;;;;;;;5011550;28;20021;-65
2023/01/28 11:13:03;;;;;;;27.52;15.93;;;;;;;;;;5014175;28;20029;-64
2023/01/28 11:15:30;;;;;;;28.55;16.35;;;;;;;;;;5027642;28;20121;-62
2023/01/28 11:18:01;;;;;;;30.15;17.67;;;;;;;;;;5012886;28;20034;-65
2023/01/28 11:20:28;;;;;;;27.95;16.13;;;;;;;;;;5012524;28;20038;-65
2023/01/28 11:22:54;;;;;;;27.65;15.43;;;;;;;;;;4993047;28;20046;-64
2023/01/28 11:25:36;;;;;;;26.77;15.98;;;;;;;;;;4992413;28;20031;-63
2023/01/28 11:28:04;;;;;;;26.63;16.58;;;;;;;;;;4992821;28;20125;-64
2023/01/28 11:30:32;;;;;;;28.83;16.98;;;;;;;;;;4992634;28;20577;-64
2023/01/28 11:33:15;;;;;;;27.60;17.50;;;;;;;;;;4997718;28;20052;-65
2023/01/28 11:35:41;;;;;;;27.95;17.50;;;;;;;;;;5010927;28;20453;-64
2023/01/28 11:38:18;;;;;;;27.63;15.77;;;;;;;;;;4999919;28;20021;-64
2023/01/28 11:40:54;;;;;;;28.23;16.25;;;;;;;;;;5011994;28;20184;-63
2023/01/28 11:43:22;;;;;;;26.27;15.45;;;;;;;;;;5005650;28;20054;-65
2023/01/28 11:46:00;;;;;;;28.17;16.37;;;;;;;;;;5000387;28;20139;-65
2023/01/28 11:48:33;;;;;;;23.70;14.48;;;;;;;;;;5006781;28;20091;-66
2023/01/28 11:51:21;;;;;;;28.95;16.15;;;;;;;;;;5011534;28;20087;-65
2023/01/28 11:53:50;;;;;;;28.02;17.65;;;;;;;;;;5010432;28;20025;-65
2023/01/28 11:56:22;;;;;;;27.02;17.40;;;;;;;;;;5011216;28;20026;-65
2023/01/28 11:59:03;;;;;;;28.35;19.35;;;;;;;;;;5024846;28;20033;-65
2023/01/28 12:01:48;;;;;;;29.17;18.58;;;;;;;;;;5011172;28;20021;-62
2023/01/28 12:04:21;;;;;;;26.27;17.02;;;;;;;;;;5009815;28;20459;-65
2023/01/28 12:06:57;;;;;;;26.27;16.67;;;;;;;;;;5009775;28;20045;-63
2023/01/28 12:09:23;;;;;;;25.25;16.73;;;;;;;;;;5011265;28;20030;-65
2023/01/28 12:12:10;;;;;;;27.80;17.75;;;;;;;;;;5011181;28;20084;-62
2023/01/28 12:14:36;;;;;;;25.70;16.05;;;;;;;;;;5011428;28;20026;-64
2023/01/28 12:17:16;;;;;;;27.15;16.75;;;;;;;;;;5011361;28;20124;-63
2023/01/28 12:19:49;;;;;;;25.65;16.98;;;;;;;;;;5011749;28;20483;-64
2023/01/28 12:22:44;;;;;;;26.20;17.40;;;;;;;;;;5011327;28;20075;-64
2023/01/28 12:25:17;;;;;;;27.67;17.63;;;;;;;;;;4997648;28;20030;-62
2023/01/28 12:27:49;;;;;;;25.52;17.45;;;;;;;;;;5010385;28;20030;-65
2023/01/28 12:30:24;;;;;;;24.02;17.65;;;;;;;;;;5011668;28;20429;-64
2023/01/28 12:33:09;;;;;;;24.30;18.65;;;;;;;;;;5009715;28;20037;-64
2023/01/28 12:35:49;;;;;;;29.77;18.92;;;;;;;;;;5009277;28;20025;-64
2023/01/28 12:38:28;;;;;;;22.88;17.58;;;;;;;;;;5010282;28;20083;-65
2023/01/28 12:40:57;;;;;;;22.20;16.75;;;;;;;;;;5010134;28;20479;-65
2023/01/28 12:43:42;;;;;;;24.27;17.38;;;;;;;;;;5011009;28;20129;-65
2023/01/28 12:46:15;;;;;;;22.75;17.42;;;;;;;;;;5012100;28;20788;-64
2023/01/28 12:48:44;;;;;;;21.67;16.75;;;;;;;;;;5011556;28;20030;-64
2023/01/28 12:51:14;;;;;;;23.98;18.50;;;;;;;;;;5009403;28;20102;-64
2023/01/28 12:53:40;;;;;;;24.55;18.80;;;;;;;;;;5010856;28;20029;-65
2023/01/28 12:56:15;;;;;;;24.50;18.38;;;;;;;;;;5009614;28;20113;-61
2023/01/28 12:59:01;;;;;;;22.25;17.80;;;;;;;;;;5009579;28;20465;-65
2023/01/28 13:01:32;;;;;;;22.75;17.52;;;;;;;;;;5009717;28;20367;-64
2023/01/28 13:04:03;;;;;;;24.13;17.55;;;;;;;;;;5010399;28;20342;-64
2023/01/28 13:06:29;;;;;;;22.67;18.00;;;;;;;;;;5011032;28;20056;-65
2023/01/28 13:09:03;;;;;;;23.05;18.15;;;;;;;;;;5011334;28;20104;-67
2023/01/28 13:11:35;;;;;;;23.52;18.02;;;;;;;;;;5021071;28;20363;-65
2023/01/28 13:14:02;;;;;;;22.63;18.15;;;;;;;;;;5012321;28;20018;-65
2023/01/28 13:16:29;;;;;;;22.55;17.48;;;;;;;;;;4664972;28;10000942;-65
2023/01/28 13:19:04;;;;;;;22.67;17.80;;;;;;;;;;5013907;28;20043;-66
2023/01/28 13:21:34;;;;;;;22.73;18.02;;;;;;;;;;5019793;28;20030;-66
2023/01/28 13:24:10;;;;;;;22.25;16.67;;;;;;;;;;5022963;28;20095;-63
2023/01/28 13:26:50;;;;;;;23.95;17.02;;;;;;;;;;5021012;28;20060;-63
2023/01/28 13:29:21;;;;;;;22.17;16.73;;;;;;;;;;5027732;28;20096;-66
2023/01/28 13:31:49;;;;;;;22.52;16.67;;;;;;;;;;5026521;28;20116;-61
2023/01/28 13:34:29;;;;;;;24.45;16.70;;;;;;;;;;5021860;28;20429;-66
2023/01/28 13:36:55;;;;;;;23.88;16.13;;;;;;;;;;5008022;28;20033;-66
2023/01/28 13:39:23;;;;;;;24.20;16.55;;;;;;;;;;5022009;28;20026;-63
2023/01/28 13:41:50;;;;;;;23.73;16.07;;;;;;;;;;5007879;28;20394;-64
2023/01/28 13:44:25;;;;;;;23.80;15.82;;;;;;;;;;5007556;28;20053;-66
2023/01/28 13:46:52;;;;;;;22.90;15.40;;;;;;;;;;5010514;28;20136;-64
2023/01/28 13:49:23;;;;;;;24.63;16.15;;;;;;;;;;5010663;28;20029;-66
2023/01/28 13:51:58;;;;;;;24.73;16.17;;;;;;;;;;5020589;28;20029;-65
2023/01/28 13:54:24;;;;;;;24.85;15.90;;;;;;;;;;5031346;28;20017;-64
2023/01/28 13:56:59;;;;;;;24.90;15.80;;;;;;;;;;5030556;28;20112;-65
2023/01/28 13:59:35;;;;;;;25.60;16.33;;;;;;;;;;5031737;28;20033;-65
2023/01/28 14:02:16;;;;;;;25.33;16.88;;;;;;;;;;5029705;28;20033;-64
2023/01/28 14:05:01;;;;;;;26.98;15.82;;;;;;;;;;5029457;28;20021;-65
2023/01/28 14:07:37;;;;;;;23.85;16.30;;;;;;;;;;5031456;28;20033;-66
2023/01/28 14:10:28;;;;;;;24.23;15.52;;;;;;;;;;5031118;28;20057;-65
2023/01/28 14:12:54;;;;;;;23.80;15.73;;;;;;;;;;5026288;28;20398;-66
2023/01/28 14:15:40;;;;;;;23.40;15.88;;;;;;;;;;5026603;28;20021;-66
2023/01/28 14:18:22;;;;;;;29.60;16.70;;;;;;;;;;5026385;28;20541;-62
2023/01/28 14:20:48;;;;;;;21.52;15.32;;;;;;;;;;5008581;28;20555;-65
2023/01/28 14:23:20;;;;;;;27.80;17.27;;;;;;;;;;5008997;28;20030;-62
2023/01/28 14:25:49;;;;;;;22.25;16.02;;;;;;;;;;5009264;28;20034;-66
2023/01/28 14:28:25;;;;;;;23.15;16.63;;;;;;;;;;5010521;28;20030;-65
2023/01/28 14:30:55;;;;;;;22.90;16.17;;;;;;;;;;5017703;28;20018;-65
2023/01/28 14:33:21;;;;;;;25.70;18.90;;;;;;;;;;5011039;28;20712;-61
2023/01/28 14:35:48;;;;;;;33.60;25.50;;;;;;;;;;5012434;28;20033;-66
2023/01/28 14:38:16;;;;;;;22.77;16.20;;;;;;;;;;5013121;28;20026;-65
2023/01/28 14:40:42;;;;;;;23.80;16.73;;;;;;;;;;5012930;28;20022;-64
2023/01/28 14:43:13;;;;;;;23.05;15.85;;;;;;;;;;5011589;28;20042;-63
2023/01/28 14:45:54;;;;;;;23.10;15.57;;;;;;;;;;5012967;28;20053;-65
2023/01/28 14:48:20;;;;;;;22.45;15.68;;;;;;;;;;5011781;28;20034;-65
2023/01/28 14:51:04;;;;;;;23.92;16.55;;;;;;;;;;5012699;28;20026;-63
2023/01/28 14:53:36;;;;;;;24.75;16.30;;;;;;;;;;5012288;28;20431;-65
2023/01/28 14:56:07;;;;;;;23.52;15.40;;;;;;;;;;5012860;28;20014;-62
2023/01/28 14:58:36;;;;;;;24.23;15.45;;;;;;;;;;5012089;28;20033;-62
2023/01/28 15:01:02;;;;;;;23.65;15.73;;;;;;;;;;5011232;28;20390;-64
2023/01/28 15:03:29;;;;;;;24.15;16.08;;;;;;;;;;5011774;28;20560;-65